Thousand Oaks, CA

9:17 PM PDT on May 25, 2015 (GMT -0700)
Sunset Hills | | Change Station
CLOSE
Current Station
Personal Weather Station
Location: Thousand Oaks, CA
Elevation: 1300 ft
Nearby Weather Stations

Elev 1300 ft 34.23 °N, 118.84 °W | Updated 6 minutes ago

Clear
Clear
55.9 °F
Feels Like 55.9 °F
N
3.0
Wind Variable Wind from NW
Gusts 4.0 mph

Today
High -- | Low -- °F
--% Chance of Precip.
Yesterday
High -- | Low -- °F
Precip. -- in
5:47 AM 7:57 PM
First Quarter, 54% visible
Pressure 30.01 in
Visibility 10.0 miles
Clouds Clear
Dew Point 53 °F
Humidity 90%
Rainfall 0.00 in
Snow Depth Not available.
UV 0 out of 12
Pollen 6.20 out of 12
Air Quality Not available.
Flu Activity Sporadic
METAR KCMA 260355Z 26006KT 10SM CLR 16/12 A2998 RMK AO2 SLP160 T01560117

More Conditions Fewer Conditions

Pressure 30.01 in
Visibility 10.0 miles
Clouds Clear
Dew Point 53 °F
Humidity 90%
Rainfall 0.00 in
Snow Depth Not available.
UV 0 out of 12
Pollen 6.20 out of 12
Air Quality Not available.
Flu Activity Sporadic
METAR KCMA 260355Z 26006KT 10SM CLR 16/12 A2998 RMK AO2 SLP160 T01560117

More Conditions Fewer Conditions

10-Day Weather Forecast

Almanac

Astronomy

May. 25, 2015 Rise Set
Actual Time
Civil Twilight
Nautical Twilight
Astronomical Twilight
Moon
Length of Visible Light
Length of Day
Tomorrow will be .
, % of the Moon is Illuminated

Today's Extremes

State Highs State Lows

Community

WunderPhotos

Upload Photos

1,824,277 photos uploaded!

WunderBlogs® & News

Nearby

Air Quality

  Air Quality AQ Index Pollutant
Not available.

Snow Depth

Station Depth Elevation

Earthquake Activity

City Distance Mag. Time & Date
Minimum magnitude displayed is 2.5.

Coastal Water Temperatures

Place Temperature

Stations

Nearby Weather Stations

Station Location Temp. Windchill Dew Point Humidity Wind Precip. Elev Updated Type